< < Back
Terminal Aerodrome Forecast


Current Version              Previous Versions:   1  2  3  4  5  6  7  8  9  

Terminal Aerodrome Forecast

177
FTUS42 KFFC 262337
TAFMCN
TAF
KMCN 262337Z 2700/2724 20007KT P6SM SCT050 BKN200
     FM270500 23007KT 4SM SHRA BR OVC025
      TEMPO 2705/2707 5SM -TSRA BR BKN015CB
     FM270700 26008KT P6SM -SHRA OVC015
     FM270900 29010G18KT P6SM OVC008
     FM271400 32011KT P6SM OVC015
     FM271700 33013G23KT P6SM SCT025 BKN050
     FM272100 32012G22KT P6SM BKN070=



Latest METAR

894
SAUS80 KWBC 270600 RRB
MTRMCN
METAR KMCN 270553Z AUTO 22004KT 10SM CLR 18/16 A2975 RMK AO2 SLP071
T01780156 10200 20178 58026 TSNO


USA.gov is the U.S. government's official web portal to all federal, state and local government web resources and services.